createdAt,value
2022-12-18T00:00:48.150Z,39.47
2022-12-18T00:03:15.822Z,44.58
2022-12-18T00:05:53.171Z,44.20
2022-12-18T00:08:20.253Z,38.38
2022-12-18T00:10:46.906Z,43.97
2022-12-18T00:13:13.681Z,39.35
2022-12-18T00:15:40.609Z,47.45
2022-12-18T00:18:08.024Z,46.67
2022-12-18T00:20:39.116Z,42.50
2022-12-18T00:23:06.974Z,44.80
2022-12-18T00:25:37.272Z,48.08
2022-12-18T00:28:04.657Z,39.67
2022-12-18T00:30:31.450Z,32.35
2022-12-18T00:32:58.534Z,38.58
2022-12-18T00:35:25.001Z,49.63
2022-12-18T00:37:51.539Z,35.08
2022-12-18T00:40:17.975Z,38.17
2022-12-18T00:42:56.505Z,34.78
2022-12-18T00:45:28.723Z,34.33
2022-12-18T00:47:56.234Z,41.25
2022-12-18T00:50:24.567Z,35.17
2022-12-18T00:52:51.028Z,32.80
2022-12-18T00:55:18.006Z,29.00
2022-12-18T00:57:44.827Z,28.88
2022-12-18T01:00:14.142Z,36.25
2022-12-18T01:02:41.651Z,29.98
2022-12-18T01:05:10.712Z,39.58
2022-12-18T01:07:37.250Z,39.22
2022-12-18T01:10:05.431Z,30.67
2022-12-18T01:12:31.838Z,33.90
2022-12-18T01:14:58.195Z,33.20
2022-12-18T01:17:24.810Z,36.55
2022-12-18T01:19:51.291Z,42.20
2022-12-18T01:22:17.665Z,33.85
2022-12-18T01:24:43.983Z,30.25
2022-12-18T01:27:10.411Z,36.47
2022-12-18T01:29:36.854Z,34.10
2022-12-18T01:32:03.430Z,32.30
2022-12-18T01:34:30.030Z,32.70
2022-12-18T01:36:56.477Z,30.45
2022-12-18T01:39:22.823Z,27.90
2022-12-18T01:42:05.013Z,33.85
2022-12-18T01:45:01.911Z,27.90
2022-12-18T01:47:37.502Z,30.85
2022-12-18T01:50:06.910Z,27.20
2022-12-18T01:52:34.454Z,23.77
2022-12-18T01:55:02.711Z,47.25
2022-12-18T01:57:29.826Z,33.30
2022-12-18T02:00:00.566Z,32.30
2022-12-18T02:02:28.637Z,30.65
2022-12-18T02:04:55.127Z,36.38
2022-12-18T02:08:00.437Z,34.38
2022-12-18T02:10:45.310Z,33.85
2022-12-18T02:13:31.205Z,30.52
2022-12-18T02:16:09.069Z,33.22
2022-12-18T02:18:42.734Z,33.50
2022-12-18T02:21:21.401Z,32.13
2022-12-18T02:24:10.619Z,26.70
2022-12-18T02:26:48.570Z,29.52
2022-12-18T02:29:19.157Z,36.03
2022-12-18T02:31:55.247Z,31.15
2022-12-18T02:34:26.946Z,33.15
2022-12-18T02:36:55.725Z,32.08
2022-12-18T02:39:24.751Z,29.35
2022-12-18T02:41:51.697Z,29.92
2022-12-18T02:44:18.215Z,25.90
2022-12-18T02:46:49.950Z,28.38
2022-12-18T02:49:55.223Z,30.92
2022-12-18T02:53:16.006Z,31.75
2022-12-18T02:56:03.819Z,29.48
2022-12-18T02:58:48.230Z,23.13
2022-12-18T03:01:42.901Z,33.47
2022-12-18T03:04:17.740Z,35.40
2022-12-18T03:06:54.376Z,33.92
2022-12-18T03:09:28.677Z,36.90
2022-12-18T03:12:18.773Z,32.35
2022-12-18T03:14:47.051Z,28.40
2022-12-18T03:17:19.298Z,35.90
2022-12-18T03:19:48.622Z,29.35
2022-12-18T03:22:17.154Z,33.05
2022-12-18T03:24:43.665Z,34.15
2022-12-18T03:27:15.594Z,29.52
2022-12-18T03:30:08.175Z,31.98
2022-12-18T03:32:46.052Z,33.58
2022-12-18T03:35:15.406Z,28.80
2022-12-18T03:37:41.833Z,33.50
2022-12-18T03:40:08.769Z,24.92
2022-12-18T03:42:45.080Z,26.75
2022-12-18T03:45:30.278Z,25.80
2022-12-18T03:48:02.486Z,22.15
2022-12-18T03:50:41.718Z,24.25
2022-12-18T03:53:30.875Z,26.40
2022-12-18T03:56:00.164Z,21.85
2022-12-18T03:58:28.142Z,32.90
2022-12-18T04:00:57.914Z,27.17
2022-12-18T04:03:26.866Z,27.88
2022-12-18T04:05:56.244Z,27.73
2022-12-18T04:08:24.447Z,26.38
2022-12-18T04:10:50.809Z,28.48
2022-12-18T04:13:25.336Z,23.45
2022-12-18T04:15:52.080Z,29.25
2022-12-18T04:18:18.436Z,30.08
2022-12-18T04:20:44.773Z,26.15
2022-12-18T04:23:11.126Z,23.33
2022-12-18T04:25:37.498Z,22.38
2022-12-18T04:28:04.085Z,25.45
2022-12-18T04:30:30.404Z,28.95
2022-12-18T04:32:56.776Z,27.17
2022-12-18T04:35:23.312Z,19.17
2022-12-18T04:37:49.724Z,21.75
2022-12-18T04:40:16.223Z,32.50
2022-12-18T04:42:42.620Z,23.10
2022-12-18T04:45:09.653Z,30.92
2022-12-18T04:47:36.123Z,21.10
2022-12-18T04:50:02.533Z,24.58
2022-12-18T04:52:28.867Z,24.10
2022-12-18T04:54:55.216Z,21.67
2022-12-18T04:57:21.618Z,25.17
2022-12-18T04:59:47.946Z,29.65
2022-12-18T05:02:14.382Z,21.63
2022-12-18T05:04:40.862Z,24.10
2022-12-18T05:07:07.201Z,20.80
2022-12-18T05:09:33.567Z,25.27
2022-12-18T05:11:59.999Z,25.80
2022-12-18T05:14:28.431Z,29.65
2022-12-18T05:17:00.564Z,22.65
2022-12-18T05:19:27.385Z,21.27
2022-12-18T05:21:53.727Z,19.25
2022-12-18T05:24:20.161Z,26.38
2022-12-18T05:26:46.596Z,22.40
2022-12-18T05:29:13.268Z,22.67
2022-12-18T05:31:40.484Z,27.40
2022-12-18T05:34:08.469Z,21.08
2022-12-18T05:36:34.849Z,23.75
2022-12-18T05:39:02.353Z,28.38
2022-12-18T05:41:29.509Z,24.23
2022-12-18T05:43:55.997Z,28.35
2022-12-18T05:46:22.521Z,18.23
2022-12-18T05:48:51.085Z,24.88
2022-12-18T05:51:21.001Z,20.65
2022-12-18T05:53:48.254Z,25.75
2022-12-18T05:56:17.658Z,21.73
2022-12-18T05:58:44.539Z,29.25
2022-12-18T06:01:15.028Z,25.00
2022-12-18T06:03:41.887Z,25.85
2022-12-18T06:06:19.990Z,26.65
2022-12-18T06:08:49.201Z,22.50
2022-12-18T06:11:20.756Z,27.75
2022-12-18T06:13:53.486Z,23.80
2022-12-18T06:16:22.973Z,27.48
2022-12-18T06:18:49.411Z,19.08
2022-12-18T06:21:15.830Z,20.88
2022-12-18T06:23:43.082Z,20.15
2022-12-18T06:26:14.652Z,25.63
2022-12-18T06:28:41.248Z,28.15
2022-12-18T06:31:09.002Z,27.20
2022-12-18T06:33:36.248Z,23.40
2022-12-18T06:36:13.462Z,27.25
2022-12-18T06:38:42.631Z,27.73
2022-12-18T06:41:10.678Z,23.65
2022-12-18T06:43:37.658Z,20.13
2022-12-18T06:46:06.036Z,25.80
2022-12-18T06:48:33.269Z,30.63
2022-12-18T06:51:00.115Z,23.33
2022-12-18T06:53:26.753Z,20.77
2022-12-18T06:55:53.308Z,21.25
2022-12-18T06:58:19.731Z,20.33
2022-12-18T07:00:47.458Z,23.52
2022-12-18T07:03:15.015Z,23.45
2022-12-18T07:05:41.824Z,26.30
2022-12-18T07:08:08.349Z,31.40
2022-12-18T07:10:46.291Z,18.40
2022-12-18T07:13:13.928Z,22.70
2022-12-18T07:15:40.668Z,23.33
2022-12-18T07:18:07.118Z,27.80
2022-12-18T07:20:33.510Z,28.92
2022-12-18T07:22:59.892Z,28.58
2022-12-18T07:25:26.237Z,26.90
2022-12-18T07:27:52.573Z,28.63
2022-12-18T07:30:18.913Z,39.88
2022-12-18T07:32:45.447Z,34.65
2022-12-18T07:35:11.855Z,38.78
2022-12-18T07:37:38.334Z,27.63
2022-12-18T07:40:05.306Z,27.60
2022-12-18T07:42:31.685Z,34.17
2022-12-18T07:44:59.397Z,34.55
2022-12-18T07:47:25.888Z,31.75
2022-12-18T07:49:52.786Z,26.60
2022-12-18T07:52:25.615Z,27.88
2022-12-18T07:54:52.495Z,33.22
2022-12-18T07:57:41.821Z,23.85
2022-12-18T08:00:05.897Z,23.20
2022-12-18T08:02:32.889Z,25.10
2022-12-18T08:04:59.545Z,28.70
2022-12-18T08:07:26.065Z,30.40
2022-12-18T08:09:52.502Z,26.15
2022-12-18T08:12:18.863Z,28.02
2022-12-18T08:14:45.205Z,27.75
2022-12-18T08:17:11.605Z,27.02
2022-12-18T08:19:38.048Z,25.40
2022-12-18T08:22:04.498Z,33.70
2022-12-18T08:24:30.894Z,25.90
2022-12-18T08:27:28.017Z,30.65
2022-12-18T08:29:44.481Z,36.80
2022-12-18T08:32:10.867Z,26.92
2022-12-18T08:34:37.417Z,26.08
2022-12-18T08:37:03.829Z,32.72
2022-12-18T08:39:30.502Z,27.55
2022-12-18T08:42:15.360Z,26.95
2022-12-18T08:44:42.150Z,26.02
2022-12-18T08:47:08.739Z,26.42
2022-12-18T08:49:35.959Z,20.13
2022-12-18T08:52:03.652Z,23.58
2022-12-18T08:54:30.369Z,19.13
2022-12-18T08:56:56.759Z,20.13
2022-12-18T08:59:24.069Z,21.38
2022-12-18T09:01:50.591Z,20.45
2022-12-18T09:04:17.458Z,16.40
2022-12-18T09:06:44.394Z,21.75
2022-12-18T09:09:11.075Z,22.00
2022-12-18T09:11:38.157Z,24.50
2022-12-18T09:14:04.574Z,17.85
2022-12-18T09:16:33.130Z,16.65
2022-12-18T09:19:00.791Z,21.23
2022-12-18T09:21:30.587Z,23.65
2022-12-18T09:23:57.744Z,23.77
2022-12-18T09:26:25.642Z,19.38
2022-12-18T09:28:52.461Z,17.85
2022-12-18T09:31:21.533Z,20.50
2022-12-18T09:33:48.074Z,22.30
2022-12-18T09:36:17.661Z,23.27
2022-12-18T09:38:44.988Z,23.65
2022-12-18T09:41:20.173Z,29.67
2022-12-18T09:43:50.753Z,22.13
2022-12-18T09:46:26.300Z,18.35
2022-12-18T09:48:56.754Z,19.25
2022-12-18T09:51:27.301Z,20.77
2022-12-18T09:54:02.492Z,21.83
2022-12-18T09:56:32.888Z,29.90
2022-12-18T09:59:01.117Z,18.48
2022-12-18T10:01:36.380Z,20.63
2022-12-18T10:04:09.885Z,22.77
2022-12-18T10:07:23.836Z,22.92
2022-12-18T10:10:31.006Z,19.73
2022-12-18T10:13:16.444Z,30.13
2022-12-18T10:16:13.112Z,26.02
2022-12-18T10:18:48.005Z,24.73
2022-12-18T10:21:20.000Z,29.15
2022-12-18T10:24:13.172Z,25.05
2022-12-18T10:26:40.534Z,30.08
2022-12-18T10:29:15.159Z,26.30
2022-12-18T10:31:41.882Z,29.27
2022-12-18T10:34:12.190Z,27.35
2022-12-18T10:36:38.764Z,30.17
2022-12-18T10:39:23.841Z,25.63
2022-12-18T10:41:50.273Z,28.15
2022-12-18T10:44:24.808Z,33.08
2022-12-18T10:46:56.802Z,24.80
2022-12-18T10:49:32.462Z,29.55
2022-12-18T10:52:22.695Z,34.88
2022-12-18T10:54:59.351Z,21.92
2022-12-18T10:57:39.521Z,19.50
2022-12-18T11:00:22.914Z,20.98
2022-12-18T11:02:49.680Z,25.55
2022-12-18T11:05:27.259Z,18.50
2022-12-18T11:07:55.257Z,22.10
2022-12-18T11:10:28.220Z,22.25
2022-12-18T11:12:56.225Z,24.15
2022-12-18T11:15:28.623Z,27.23
2022-12-18T11:17:55.108Z,18.10
2022-12-18T11:20:30.587Z,19.08
2022-12-18T11:22:59.688Z,24.00
2022-12-18T11:25:35.106Z,21.17
2022-12-18T11:28:25.888Z,21.65
2022-12-18T11:31:19.780Z,27.13
2022-12-18T11:34:28.658Z,29.40
2022-12-18T11:36:58.526Z,23.00
2022-12-18T11:39:37.143Z,31.02
2022-12-18T11:42:18.098Z,25.35
2022-12-18T11:44:54.693Z,31.98
2022-12-18T11:47:40.241Z,23.08
2022-12-18T11:50:15.111Z,26.15
2022-12-18T11:52:42.015Z,28.48
2022-12-18T11:55:16.046Z,28.77
2022-12-18T11:58:07.334Z,36.47
2022-12-18T12:00:39.813Z,30.23
2022-12-18T12:03:28.408Z,31.38
2022-12-18T12:06:15.497Z,24.60
2022-12-18T12:09:26.267Z,25.80
2022-12-18T12:12:04.409Z,24.80
2022-12-18T12:14:46.321Z,28.98
2022-12-18T12:17:30.695Z,27.30
2022-12-18T12:20:21.470Z,30.30
2022-12-18T12:22:59.885Z,23.52
2022-12-18T12:25:45.575Z,19.38
2022-12-18T12:28:35.941Z,21.42
2022-12-18T12:31:31.481Z,18.45
2022-12-18T12:34:05.411Z,20.63
2022-12-18T12:36:48.141Z,21.98
2022-12-18T12:39:23.999Z,22.58
2022-12-18T12:42:09.058Z,32.17
2022-12-18T12:44:41.988Z,23.92
2022-12-18T12:47:21.539Z,22.88
2022-12-18T12:49:50.800Z,16.30
2022-12-18T12:52:36.811Z,26.55
2022-12-18T12:55:10.305Z,23.55
2022-12-18T12:57:44.325Z,31.67
2022-12-18T13:00:13.795Z,25.17
2022-12-18T13:02:53.156Z,22.73
2022-12-18T13:05:44.483Z,20.08
2022-12-18T13:08:22.668Z,24.25
2022-12-18T13:10:50.543Z,25.80
2022-12-18T13:13:20.428Z,24.85
2022-12-18T13:16:07.482Z,16.27
2022-12-18T13:18:34.923Z,21.58
2022-12-18T13:21:03.508Z,23.55
2022-12-18T13:23:37.135Z,21.20
2022-12-18T13:26:12.606Z,22.83
2022-12-18T13:28:48.142Z,25.02
2022-12-18T13:31:36.379Z,26.42
2022-12-18T13:34:28.248Z,25.27
2022-12-18T13:37:00.375Z,22.73
2022-12-18T13:39:36.437Z,23.05
2022-12-18T13:42:06.964Z,27.67
2022-12-18T13:44:40.853Z,26.77
2022-12-18T13:47:32.365Z,25.98
2022-12-18T13:49:59.951Z,23.83
2022-12-18T13:52:29.488Z,18.98
2022-12-18T13:54:58.659Z,21.77
2022-12-18T13:57:33.955Z,24.55
2022-12-18T14:00:17.682Z,21.80
2022-12-18T14:02:46.353Z,23.65
2022-12-18T14:05:26.608Z,25.33
2022-12-18T14:07:54.677Z,21.60
2022-12-18T14:13:11.296Z,23.45
2022-12-18T14:15:48.825Z,23.80
2022-12-18T14:18:22.699Z,29.65
2022-12-18T14:20:53.099Z,49.28
2022-12-18T14:23:46.239Z,24.00
2022-12-18T14:26:30.593Z,25.95
2022-12-18T14:29:02.562Z,22.45
2022-12-18T14:31:31.456Z,28.92
2022-12-18T14:33:58.082Z,27.38
2022-12-18T14:36:26.619Z,32.63
2022-12-18T14:38:55.753Z,25.58
2022-12-18T14:41:23.425Z,27.08
2022-12-18T14:43:52.351Z,30.48
2022-12-18T14:46:42.550Z,25.65
2022-12-18T14:49:30.186Z,26.17
2022-12-18T14:51:59.902Z,29.80
2022-12-18T14:54:28.270Z,24.83
2022-12-18T14:57:01.340Z,26.85
2022-12-18T14:59:29.356Z,23.75
2022-12-18T15:02:28.418Z,21.02
2022-12-18T15:05:12.713Z,19.02
2022-12-18T15:07:43.194Z,25.35
2022-12-18T15:10:16.504Z,31.15
2022-12-18T15:12:48.270Z,30.73
2022-12-18T15:15:43.702Z,29.77
2022-12-18T15:18:11.351Z,31.48
2022-12-18T15:20:53.134Z,29.48
2022-12-18T15:23:23.329Z,18.67
2022-12-18T15:26:06.961Z,20.70
2022-12-18T15:28:39.076Z,21.00
2022-12-18T15:31:09.845Z,26.48
2022-12-18T15:33:40.572Z,24.13
2022-12-18T15:36:13.043Z,24.92
2022-12-18T15:38:39.738Z,23.38
2022-12-18T15:41:11.574Z,28.00
2022-12-18T15:43:40.884Z,27.90
2022-12-18T15:46:25.099Z,32.28
2022-12-18T15:49:01.447Z,31.33
2022-12-18T15:53:59.807Z,32.47
2022-12-18T15:56:45.783Z,42.88
2022-12-18T15:59:15.293Z,43.35
2022-12-18T16:01:43.179Z,40.35
2022-12-18T16:04:13.869Z,48.30
2022-12-18T16:07:05.639Z,48.42
2022-12-18T16:09:27.575Z,28.85
2022-12-18T16:11:54.031Z,30.55
2022-12-18T16:14:29.108Z,22.27
2022-12-18T16:17:01.430Z,22.92
2022-12-18T16:19:28.885Z,26.00
2022-12-18T16:21:57.578Z,33.67
2022-12-18T16:24:30.154Z,28.25
2022-12-18T16:26:59.955Z,49.80
2022-12-18T16:29:28.475Z,32.63
2022-12-18T16:31:56.311Z,23.88
2022-12-18T16:34:29.437Z,25.58
2022-12-18T16:37:05.734Z,20.35
2022-12-18T16:39:34.873Z,24.25
2022-12-18T16:42:03.374Z,27.23
2022-12-18T16:44:32.779Z,22.25
2022-12-18T16:47:02.703Z,19.33
2022-12-18T16:49:29.734Z,25.30
2022-12-18T16:51:56.387Z,21.98
2022-12-18T16:54:22.828Z,22.73
2022-12-18T16:56:51.209Z,23.95
2022-12-18T16:59:17.936Z,24.25
2022-12-18T17:01:44.649Z,18.30
2022-12-18T17:04:11.340Z,21.08
2022-12-18T17:06:43.194Z,29.20
2022-12-18T17:09:14.577Z,24.25
2022-12-18T17:11:41.276Z,28.48
2022-12-18T17:14:15.595Z,21.80
2022-12-18T17:16:42.513Z,23.90
2022-12-18T17:19:13.708Z,29.20
2022-12-18T17:21:44.998Z,25.20
2022-12-18T17:24:11.527Z,23.30
2022-12-18T17:26:37.919Z,27.65
2022-12-18T17:29:04.566Z,30.17
2022-12-18T17:31:31.123Z,27.98
2022-12-18T17:33:58.197Z,22.20
2022-12-18T17:36:28.429Z,25.88
2022-12-18T17:38:57.250Z,31.85
2022-12-18T17:41:24.926Z,26.08
2022-12-18T17:43:56.522Z,29.10
2022-12-18T17:48:50.121Z,25.27
2022-12-18T17:51:17.833Z,20.90
2022-12-18T17:53:45.076Z,34.22
2022-12-18T17:56:16.017Z,26.17
2022-12-18T17:58:43.871Z,30.70
2022-12-18T18:01:14.001Z,21.83
2022-12-18T18:03:43.636Z,19.02
2022-12-18T18:06:10.553Z,25.45
2022-12-18T18:08:37.071Z,22.40
2022-12-18T18:11:24.795Z,24.33
2022-12-18T18:14:05.081Z,29.90
2022-12-18T18:16:33.512Z,25.30
2022-12-18T18:19:08.123Z,22.92
2022-12-18T18:21:37.775Z,25.58
2022-12-18T18:24:05.330Z,41.40
2022-12-18T18:26:33.294Z,31.73
2022-12-18T18:29:01.969Z,26.48
2022-12-18T18:31:32.524Z,36.90
2022-12-18T18:34:01.321Z,22.05
2022-12-18T18:36:28.111Z,25.35
2022-12-18T18:38:59.257Z,20.75
2022-12-18T18:41:25.662Z,26.60
2022-12-18T18:43:56.846Z,23.73
2022-12-18T18:46:23.841Z,29.27
2022-12-18T18:48:50.294Z,24.20
2022-12-18T18:51:20.317Z,31.13
2022-12-18T18:53:50.092Z,31.48
2022-12-18T18:56:45.340Z,33.25
2022-12-18T18:59:05.691Z,48.97
2022-12-18T19:01:32.254Z,35.63
2022-12-18T19:03:58.793Z,28.58
2022-12-18T19:06:27.957Z,26.70
2022-12-18T19:08:55.920Z,29.02
2022-12-18T19:11:42.643Z,25.80
2022-12-18T19:14:11.786Z,25.38
2022-12-18T19:16:38.351Z,32.40
2022-12-18T19:19:05.843Z,27.77
2022-12-18T19:21:34.373Z,26.42
2022-12-18T19:24:02.588Z,25.98
2022-12-18T19:26:29.361Z,25.90
2022-12-18T19:29:04.725Z,28.58
2022-12-18T19:31:35.487Z,23.77
2022-12-18T19:34:03.746Z,24.85
2022-12-18T19:36:30.906Z,29.15
2022-12-18T19:39:00.093Z,25.80
2022-12-18T19:41:29.203Z,30.23
2022-12-18T19:43:58.510Z,29.08
2022-12-18T19:46:25.016Z,36.95
2022-12-18T19:48:51.734Z,33.60
2022-12-18T19:51:19.979Z,37.85
2022-12-18T19:53:47.173Z,24.83
2022-12-18T19:56:16.539Z,29.80
2022-12-18T19:58:44.440Z,39.33
2022-12-18T20:01:13.599Z,33.38
2022-12-18T20:03:45.416Z,37.95
2022-12-18T20:06:28.224Z,32.17
2022-12-18T20:09:00.650Z,33.72
2022-12-18T20:11:32.015Z,31.58
2022-12-18T20:14:01.284Z,32.40
2022-12-18T20:16:28.011Z,33.25
2022-12-18T20:18:54.997Z,28.48
2022-12-18T20:21:21.424Z,33.55
2022-12-18T20:23:47.793Z,27.13
2022-12-18T20:26:14.379Z,36.70
2022-12-18T20:28:40.868Z,37.25
2022-12-18T20:31:13.583Z,30.83
2022-12-18T20:33:41.059Z,32.00
2022-12-18T20:36:12.773Z,33.30
2022-12-18T20:38:39.549Z,33.30
2022-12-18T20:41:15.252Z,43.10
2022-12-18T20:43:42.294Z,39.75
2022-12-18T20:46:10.582Z,35.28
2022-12-18T20:48:42.882Z,39.50
2022-12-18T20:51:12.078Z,36.45
2022-12-18T20:53:41.721Z,36.67
2022-12-18T20:56:21.056Z,42.35
2022-12-18T20:58:48.750Z,37.78
2022-12-18T21:01:19.111Z,33.45
2022-12-18T21:03:46.405Z,26.80
2022-12-18T21:06:15.275Z,34.50
2022-12-18T21:08:42.113Z,37.28
2022-12-18T21:11:40.506Z,34.95
2022-12-18T21:14:09.635Z,40.67
2022-12-18T21:16:36.896Z,33.47
2022-12-18T21:19:04.298Z,32.50
2022-12-18T21:21:35.864Z,30.23
2022-12-18T21:24:06.048Z,29.50
2022-12-18T21:26:32.524Z,32.83
2022-12-18T21:29:13.740Z,41.33
2022-12-18T21:31:42.997Z,41.90
2022-12-18T21:34:14.725Z,40.22
2022-12-18T21:36:41.096Z,36.22
2022-12-18T21:39:08.158Z,42.78
2022-12-18T21:41:53.322Z,38.28
2022-12-18T21:44:22.020Z,35.70
2022-12-18T21:46:55.210Z,36.22
2022-12-18T21:49:24.024Z,31.98
2022-12-18T21:51:55.984Z,33.38
2022-12-18T21:54:23.255Z,37.78
2022-12-18T21:57:04.919Z,41.55
2022-12-18T21:59:40.037Z,43.30
2022-12-18T22:02:18.819Z,36.80
2022-12-18T22:04:46.829Z,31.88
2022-12-18T22:07:15.010Z,32.08
2022-12-18T22:09:41.858Z,37.00
2022-12-18T22:12:11.413Z,31.35
2022-12-18T22:14:38.132Z,38.55
2022-12-18T22:17:04.521Z,34.03
2022-12-18T22:19:31.823Z,33.38
2022-12-18T22:21:58.174Z,37.95
2022-12-18T22:24:26.387Z,25.42
2022-12-18T22:26:59.535Z,27.00
2022-12-18T22:29:46.994Z,30.10
2022-12-18T22:32:16.841Z,34.28
2022-12-18T22:34:46.698Z,31.60
2022-12-18T22:37:13.342Z,26.50
2022-12-18T22:39:40.015Z,31.52
2022-12-18T22:42:07.399Z,33.03
2022-12-18T22:44:33.843Z,36.47
2022-12-18T22:47:06.011Z,37.67
2022-12-18T22:49:33.938Z,32.20
2022-12-18T22:52:02.096Z,34.55
2022-12-18T22:54:28.475Z,37.63
2022-12-18T22:56:55.394Z,30.02
2022-12-18T22:59:22.959Z,28.05
2022-12-18T23:01:50.600Z,31.42
2022-12-18T23:04:19.893Z,36.90
2022-12-18T23:06:47.254Z,39.15
2022-12-18T23:09:16.457Z,36.33
2022-12-18T23:11:43.204Z,33.97
2022-12-18T23:14:09.548Z,27.33
2022-12-18T23:16:35.932Z,35.63
2022-12-18T23:19:03.441Z,30.00
2022-12-18T23:21:30.107Z,28.55
2022-12-18T23:23:57.224Z,33.08
2022-12-18T23:26:25.573Z,34.67
2022-12-18T23:28:53.386Z,36.65
2022-12-18T23:31:23.718Z,33.03
2022-12-18T23:33:51.119Z,33.45
2022-12-18T23:36:18.279Z,35.80
2022-12-18T23:38:49.326Z,32.72
2022-12-18T23:41:17.979Z,36.63
2022-12-18T23:43:44.514Z,38.55
2022-12-18T23:46:18.991Z,31.48
2022-12-18T23:48:46.122Z,32.15
2022-12-18T23:51:14.162Z,38.05
2022-12-18T23:53:41.131Z,29.67
2022-12-18T23:56:08.561Z,34.10
2022-12-18T23:58:36.200Z,31.45
